To NAV CANADA Home Page Login to a new session Search on AWWS site Feedback and Comments Disclaimer Vers la page française équivalente Tips FAQ What's new on the site To the Forecasts and Observations / NOTAM section To "File a Flight Plan" website Publications and other links Update of the User's profile FIC Telephone Numbers My Weather Data Folder Route Weather Data Regional Weather Data Local Weather Data To the Forecasts and Observations / NOTAM section
Request Generated 04/23/2014 at 22:04:21 UTC . Weather information available at that time is displayed.

METAR/TAF

ABBOTSFORD/BC    

METAR CYXX 232100Z 20003KT 150V210 20SM BKN025 BKN100 12/04 A2986 RMK
CU5AC2 DIST SH NE-E SLP111=
METAR CYXX 232000Z 19005KT 190V310 20SM BKN025 BKN100 11/04 A2987 RMK
CU7AC1 AC TR SLP117=
METAR CYXX 231900Z 19004KT 130V220 20SM BKN025 BKN100 10/05 A2988 RMK
CU6AC1 SLP119=

TAF CYXX 231739Z 2318/2418 VRB03KT P6SM -SHRA OVC020 TEMPO 2318/2320
P6SM NSW OVC025
FM232000 VRB03KT P6SM BKN030 TEMPO 2320/2402 P6SM -SHRA
FM240700 05007KT P6SM -RA FEW015 BKN030
FM241000 05010KT P6SM -RA FEW008 OVC020 TEMPO 2412/2418 5SM -RA
BR BKN008
RMK NXT FCST BY 240000Z=
Your time UTC time
Weather data provided by Environment Canada and NAV CANADA